createdAt,value
2022-08-16T00:00:22.057Z,21.90
2022-08-16T00:00:54.769Z,21.88
2022-08-16T00:01:33.742Z,21.86
2022-08-16T00:02:13.248Z,21.54
2022-08-16T00:02:45.012Z,21.63
2022-08-16T00:03:18.092Z,21.61
2022-08-16T00:03:49.676Z,21.62
2022-08-16T00:04:21.686Z,21.54
2022-08-16T00:04:53.602Z,21.61
2022-08-16T00:05:35.039Z,21.59
2022-08-16T00:06:06.851Z,21.66
2022-08-16T00:06:39.674Z,21.71
2022-08-16T00:07:11.327Z,21.69
2022-08-16T00:07:42.921Z,21.68
2022-08-16T00:08:36.200Z,21.63
2022-08-16T00:09:06.582Z,21.61
2022-08-16T00:09:38.169Z,21.59
2022-08-16T00:10:20.945Z,21.63
2022-08-16T00:10:53.500Z,21.59
2022-08-16T00:11:25.136Z,21.66
2022-08-16T00:11:58.695Z,21.63
2022-08-16T00:12:31.157Z,21.62
2022-08-16T00:13:06.786Z,21.71
2022-08-16T00:13:41.644Z,21.71
2022-08-16T00:14:18.235Z,21.75
2022-08-16T00:14:50.043Z,21.82
2022-08-16T00:15:50.840Z,21.85
2022-08-16T00:17:00.657Z,21.85
2022-08-16T00:17:18.880Z,21.85
2022-08-16T00:17:56.857Z,21.88
2022-08-16T00:18:29.839Z,21.82
2022-08-16T00:19:01.659Z,21.82
2022-08-16T00:19:41.530Z,21.81
2022-08-16T00:20:14.470Z,21.78
2022-08-16T00:20:48.005Z,21.81
2022-08-16T00:21:22.357Z,21.89
2022-08-16T00:22:00.970Z,21.86
2022-08-16T00:22:36.416Z,21.86
2022-08-16T00:23:08.391Z,21.85
2022-08-16T00:23:46.477Z,21.85
2022-08-16T00:24:31.256Z,21.82
2022-08-16T00:25:06.676Z,21.85
2022-08-16T00:26:36.334Z,21.81
2022-08-16T00:26:36.557Z,21.76
2022-08-16T00:27:15.690Z,21.82
2022-08-16T00:27:49.400Z,21.68
2022-08-16T00:28:21.736Z,21.65
2022-08-16T00:29:00.092Z,21.68
2022-08-16T00:29:32.813Z,21.57
2022-08-16T00:30:08.527Z,21.48
2022-08-16T00:30:41.207Z,21.51
2022-08-16T00:31:13.577Z,21.45
2022-08-16T00:32:01.026Z,21.39
2022-08-16T00:32:39.460Z,21.30
2022-08-16T00:33:12.214Z,21.23
2022-08-16T00:33:50.285Z,21.15
2022-08-16T00:34:23.044Z,21.10
2022-08-16T00:35:18.474Z,20.66
2022-08-16T00:35:52.606Z,20.79
2022-08-16T00:36:26.963Z,20.84
2022-08-16T00:36:58.550Z,20.80
2022-08-16T00:37:56.394Z,20.81
2022-08-16T00:38:40.670Z,20.80
2022-08-16T00:39:17.293Z,20.80
2022-08-16T00:39:57.473Z,20.81
2022-08-16T00:40:43.841Z,20.97
2022-08-16T00:41:22.597Z,21.01
2022-08-16T00:41:55.837Z,20.97
2022-08-16T00:42:31.402Z,20.89
2022-08-16T00:43:43.423Z,20.73
2022-08-16T00:44:17.680Z,20.72
2022-08-16T00:44:56.386Z,20.65
2022-08-16T00:45:37.002Z,20.62
2022-08-16T00:46:52.728Z,20.57
2022-08-16T00:47:35.512Z,20.57
2022-08-16T00:48:30.434Z,20.62
2022-08-16T00:49:18.834Z,20.65
2022-08-16T00:49:56.290Z,20.79
2022-08-16T00:50:36.073Z,20.80
2022-08-16T00:51:08.289Z,20.81
2022-08-16T00:51:42.129Z,20.84
2022-08-16T00:52:29.178Z,20.87
2022-08-16T00:53:02.957Z,20.89
2022-08-16T00:53:35.430Z,20.91
2022-08-16T00:54:07.873Z,20.96
2022-08-16T00:54:44.759Z,20.90
2022-08-16T00:55:16.528Z,20.94
2022-08-16T00:55:51.942Z,20.91
2022-08-16T00:56:57.573Z,20.89
2022-08-16T00:57:24.060Z,20.84
2022-08-16T00:58:00.118Z,20.79
2022-08-16T00:58:35.357Z,20.73
2022-08-16T00:59:10.016Z,20.66
2022-08-16T00:59:59.005Z,20.53
2022-08-16T01:00:32.723Z,20.36
2022-08-16T01:01:08.480Z,20.18
2022-08-16T01:01:41.339Z,20.04
2022-08-16T01:02:30.470Z,19.90
2022-08-16T01:03:12.570Z,19.83
2022-08-16T01:03:49.590Z,19.81
2022-08-16T01:04:30.017Z,19.87
2022-08-16T01:05:11.106Z,19.90
2022-08-16T01:05:44.973Z,19.97
2022-08-16T01:06:40.379Z,20.00
2022-08-16T01:07:11.281Z,20.07
2022-08-16T01:07:50.459Z,20.20
2022-08-16T01:08:36.041Z,20.26
2022-08-16T01:09:08.622Z,20.33
2022-08-16T01:09:42.881Z,20.35
2022-08-16T01:10:16.474Z,20.36
2022-08-16T01:10:49.264Z,20.41
2022-08-16T01:11:23.239Z,20.39
2022-08-16T01:11:56.137Z,20.41
2022-08-16T01:12:28.412Z,20.32
2022-08-16T01:13:07.400Z,20.31
2022-08-16T01:13:41.047Z,20.29
2022-08-16T01:14:21.805Z,20.32
2022-08-16T01:15:02.048Z,20.35
2022-08-16T01:15:37.337Z,20.36
2022-08-16T01:16:20.023Z,20.26
2022-08-16T01:16:53.402Z,20.25
2022-08-16T01:17:26.787Z,20.25
2022-08-16T01:17:59.887Z,20.26
2022-08-16T01:18:54.692Z,20.22
2022-08-16T01:20:00.678Z,20.02
2022-08-16T01:20:37.995Z,19.90
2022-08-16T01:21:41.090Z,19.87
2022-08-16T01:22:52.252Z,19.87
2022-08-16T01:23:57.977Z,19.67
2022-08-16T01:24:53.277Z,19.63
2022-08-16T01:25:36.340Z,19.66
2022-08-16T01:26:34.746Z,19.63
2022-08-16T01:27:07.157Z,19.66
2022-08-16T01:27:52.929Z,19.57
2022-08-16T01:28:30.921Z,19.32
2022-08-16T01:29:20.068Z,19.26
2022-08-16T01:30:26.333Z,19.29
2022-08-16T01:30:59.421Z,19.30
2022-08-16T01:31:31.296Z,19.27
2022-08-16T01:32:03.159Z,19.33
2022-08-16T01:32:38.584Z,19.39
2022-08-16T01:33:14.390Z,19.50
2022-08-16T01:33:49.703Z,19.63
2022-08-16T01:34:25.366Z,19.69
2022-08-16T01:34:58.377Z,19.71
2022-08-16T01:35:36.414Z,19.78
2022-08-16T01:36:11.877Z,19.81
2022-08-16T01:36:44.228Z,19.77
2022-08-16T01:37:27.191Z,19.73
2022-08-16T01:38:19.421Z,19.78
2022-08-16T01:38:57.266Z,19.75
2022-08-16T01:39:29.272Z,19.77
2022-08-16T01:40:07.217Z,19.70
2022-08-16T01:40:39.124Z,19.73
2022-08-16T01:41:21.123Z,19.67
2022-08-16T01:41:52.778Z,19.69
2022-08-16T01:42:24.341Z,19.67
2022-08-16T01:42:57.289Z,19.67
2022-08-16T01:43:31.188Z,19.75
2022-08-16T01:44:03.537Z,19.75
2022-08-16T01:44:37.703Z,19.66
2022-08-16T01:45:10.096Z,19.66
2022-08-16T01:45:43.415Z,19.57
2022-08-16T01:46:40.677Z,19.37
2022-08-16T01:47:12.564Z,19.43
2022-08-16T01:47:49.359Z,19.49
2022-08-16T01:48:27.507Z,19.53
2022-08-16T01:49:05.322Z,19.42
2022-08-16T01:49:45.498Z,19.53
2022-08-16T01:51:05.033Z,19.57
2022-08-16T01:51:27.781Z,19.54
2022-08-16T01:52:27.993Z,19.53
2022-08-16T01:53:02.386Z,19.47
2022-08-16T01:53:34.380Z,19.43
2022-08-16T01:54:06.834Z,19.49
2022-08-16T01:54:39.829Z,19.39
2022-08-16T01:55:12.061Z,19.40
2022-08-16T01:55:54.120Z,19.42
2022-08-16T01:56:27.304Z,19.42
2022-08-16T01:56:59.980Z,19.47
2022-08-16T01:57:31.896Z,19.57
2022-08-16T01:58:07.217Z,19.54
2022-08-16T01:58:48.074Z,19.64
2022-08-16T01:59:20.470Z,19.71
2022-08-16T01:59:54.532Z,19.75
2022-08-16T02:01:07.912Z,19.84
2022-08-16T02:01:39.928Z,19.87
2022-08-16T02:02:26.866Z,19.93
2022-08-16T02:03:00.200Z,19.88
2022-08-16T02:03:32.549Z,19.84
2022-08-16T02:04:10.620Z,19.77
2022-08-16T02:04:49.801Z,19.78
2022-08-16T02:05:30.675Z,19.84
2022-08-16T02:06:02.675Z,19.81
2022-08-16T02:06:46.597Z,19.83
2022-08-16T02:07:23.625Z,19.85
2022-08-16T02:07:55.414Z,19.81
2022-08-16T02:08:33.549Z,19.70
2022-08-16T02:09:11.970Z,19.77
2022-08-16T02:09:44.525Z,19.77
2022-08-16T02:10:30.426Z,19.74
2022-08-16T02:11:08.912Z,19.77
2022-08-16T02:11:48.501Z,19.77
2022-08-16T02:12:49.955Z,19.77
2022-08-16T02:13:16.449Z,19.74
2022-08-16T02:13:48.048Z,19.71
2022-08-16T02:14:29.272Z,19.67
2022-08-16T02:15:03.951Z,19.62
2022-08-16T02:15:43.827Z,19.47
2022-08-16T02:16:18.334Z,19.22
2022-08-16T02:16:50.541Z,19.15
2022-08-16T02:17:23.732Z,19.22
2022-08-16T02:17:57.588Z,19.30
2022-08-16T02:18:29.585Z,19.33
2022-08-16T02:19:01.761Z,19.32
2022-08-16T02:19:59.286Z,19.29
2022-08-16T02:20:35.101Z,19.27
2022-08-16T02:21:08.313Z,19.26
2022-08-16T02:21:40.748Z,19.25
2022-08-16T02:22:33.795Z,19.25
2022-08-16T02:23:08.068Z,19.16
2022-08-16T02:23:40.696Z,19.12
2022-08-16T02:24:30.698Z,19.16
2022-08-16T02:25:14.696Z,19.05
2022-08-16T02:25:52.650Z,18.89
2022-08-16T02:26:26.278Z,18.85
2022-08-16T02:26:58.589Z,18.78
2022-08-16T02:27:30.993Z,18.67
2022-08-16T02:28:03.565Z,18.75
2022-08-16T02:28:35.142Z,18.76
2022-08-16T02:29:06.877Z,18.84
2022-08-16T02:29:44.714Z,18.84
2022-08-16T02:30:37.644Z,18.64
2022-08-16T02:31:14.937Z,18.75
2022-08-16T02:32:03.255Z,18.75
2022-08-16T02:32:49.001Z,18.75
2022-08-16T02:33:24.950Z,18.71
2022-08-16T02:34:15.928Z,18.81
2022-08-16T02:34:47.479Z,18.85
2022-08-16T02:35:23.210Z,18.83
2022-08-16T02:35:59.919Z,18.61
2022-08-16T02:36:47.656Z,18.65
2022-08-16T02:37:21.537Z,18.71
2022-08-16T02:37:55.178Z,18.68
2022-08-16T02:38:31.632Z,18.72
2022-08-16T02:39:06.242Z,18.71
2022-08-16T02:39:37.888Z,18.85
2022-08-16T02:40:17.011Z,18.92
2022-08-16T02:40:48.882Z,18.96
2022-08-16T02:41:20.605Z,19.01
2022-08-16T02:41:53.591Z,19.05
2022-08-16T02:42:25.403Z,19.08
2022-08-16T02:42:59.341Z,19.09
2022-08-16T02:43:34.307Z,19.08
2022-08-16T02:44:06.961Z,19.13
2022-08-16T02:44:38.820Z,19.16
2022-08-16T02:45:14.182Z,19.13
2022-08-16T02:45:45.774Z,19.08
2022-08-16T02:46:17.606Z,18.89
2022-08-16T02:46:50.435Z,18.92
2022-08-16T02:47:25.829Z,18.79
2022-08-16T02:48:01.076Z,18.68
2022-08-16T02:48:50.212Z,18.46
2022-08-16T02:49:58.253Z,18.48
2022-08-16T02:51:04.230Z,18.53
2022-08-16T02:51:11.249Z,18.67
2022-08-16T02:51:44.245Z,18.64
2022-08-16T02:52:29.264Z,18.68
2022-08-16T02:53:01.234Z,18.63
2022-08-16T02:53:35.300Z,18.72
2022-08-16T02:54:08.813Z,18.69
2022-08-16T02:54:40.416Z,18.67
2022-08-16T02:55:15.743Z,18.65
2022-08-16T02:55:50.561Z,18.69
2022-08-16T02:56:22.694Z,18.69
2022-08-16T02:56:54.674Z,18.53
2022-08-16T02:57:27.173Z,18.40
2022-08-16T02:57:59.968Z,18.20
2022-08-16T02:58:32.626Z,18.10
2022-08-16T02:59:11.603Z,18.17
2022-08-16T02:59:45.934Z,18.26
2022-08-16T03:00:34.321Z,18.27
2022-08-16T03:01:07.095Z,18.26
2022-08-16T03:01:39.165Z,18.26
2022-08-16T03:02:11.423Z,18.20
2022-08-16T03:02:44.769Z,18.29
2022-08-16T03:03:17.980Z,18.33
2022-08-16T03:04:39.205Z,18.38
2022-08-16T03:04:51.146Z,18.43
2022-08-16T03:05:25.756Z,18.51
2022-08-16T03:06:03.465Z,18.67
2022-08-16T03:06:56.408Z,18.69
2022-08-16T03:07:28.837Z,18.75
2022-08-16T03:08:00.777Z,18.79
2022-08-16T03:08:50.168Z,18.75
2022-08-16T03:09:24.949Z,18.78
2022-08-16T03:10:00.222Z,18.84
2022-08-16T03:10:33.703Z,18.72
2022-08-16T03:11:06.612Z,18.64
2022-08-16T03:11:48.842Z,18.64
2022-08-16T03:12:30.348Z,18.55
2022-08-16T03:13:12.645Z,18.48
2022-08-16T03:13:55.741Z,18.57
2022-08-16T03:14:28.469Z,18.61
2022-08-16T03:15:00.210Z,18.67
2022-08-16T03:15:31.907Z,18.65
2022-08-16T03:16:04.923Z,18.58
2022-08-16T03:16:38.958Z,18.65
2022-08-16T03:17:13.970Z,18.68
2022-08-16T03:17:53.958Z,18.76
2022-08-16T03:18:34.602Z,18.89
2022-08-16T03:19:12.232Z,18.85
2022-08-16T03:19:47.953Z,18.91
2022-08-16T03:20:32.580Z,18.88
2022-08-16T03:21:07.256Z,18.91
2022-08-16T03:21:41.781Z,18.83
2022-08-16T03:22:19.530Z,18.89
2022-08-16T03:23:01.967Z,18.84
2022-08-16T03:23:35.541Z,18.88
2022-08-16T03:24:29.352Z,18.91
2022-08-16T03:25:02.294Z,18.79
2022-08-16T03:25:44.154Z,18.71
2022-08-16T03:26:18.007Z,18.74
2022-08-16T03:26:50.441Z,18.79
2022-08-16T03:27:23.006Z,18.81
2022-08-16T03:27:54.576Z,18.85
2022-08-16T03:28:26.331Z,18.87
2022-08-16T03:28:57.861Z,18.85
2022-08-16T03:29:33.406Z,18.78
2022-08-16T03:30:27.152Z,18.60
2022-08-16T03:30:59.260Z,18.47
2022-08-16T03:31:34.561Z,18.47
2022-08-16T03:32:12.290Z,18.26
2022-08-16T03:32:51.526Z,18.38
2022-08-16T03:33:24.175Z,18.41
2022-08-16T03:33:55.809Z,18.37
2022-08-16T03:34:27.978Z,18.50
2022-08-16T03:34:59.531Z,18.29
2022-08-16T03:35:33.778Z,18.22
2022-08-16T03:36:30.117Z,18.23
2022-08-16T03:36:58.378Z,18.30
2022-08-16T03:37:30.024Z,18.32
2022-08-16T03:38:32.415Z,18.23
2022-08-16T03:39:05.248Z,18.20
2022-08-16T03:39:47.068Z,18.24
2022-08-16T03:40:31.745Z,18.10
2022-08-16T03:41:17.187Z,18.13
2022-08-16T03:42:00.121Z,18.13
2022-08-16T03:42:32.063Z,18.17
2022-08-16T03:43:20.688Z,18.22
2022-08-16T03:43:54.693Z,18.20
2022-08-16T03:44:44.856Z,18.26
2022-08-16T03:45:18.100Z,18.41
2022-08-16T03:45:55.323Z,18.48
2022-08-16T03:46:47.904Z,18.61
2022-08-16T03:47:20.235Z,18.65
2022-08-16T03:47:51.953Z,18.68
2022-08-16T03:48:36.349Z,18.74
2022-08-16T03:49:10.741Z,18.74
2022-08-16T03:49:44.443Z,18.75
2022-08-16T03:50:25.915Z,18.76
2022-08-16T03:51:00.686Z,18.76
2022-08-16T03:51:32.343Z,18.79
2022-08-16T03:52:04.373Z,18.84
2022-08-16T03:52:36.331Z,18.92
2022-08-16T03:53:07.991Z,18.98
2022-08-16T03:53:42.422Z,18.94
2022-08-16T03:54:14.203Z,19.02
2022-08-16T03:54:53.257Z,18.95
2022-08-16T03:55:39.994Z,19.01
2022-08-16T03:56:20.015Z,18.98
2022-08-16T03:56:57.619Z,18.94
2022-08-16T03:57:32.021Z,18.89
2022-08-16T03:58:07.869Z,18.89
2022-08-16T03:58:39.478Z,18.87
2022-08-16T03:59:16.117Z,18.89
2022-08-16T03:59:48.426Z,18.91
2022-08-16T04:00:35.530Z,18.99
2022-08-16T04:01:12.666Z,18.99
2022-08-16T04:01:44.897Z,18.99
2022-08-16T04:02:22.836Z,18.85
2022-08-16T04:03:08.736Z,18.81
2022-08-16T04:03:40.627Z,18.79
2022-08-16T04:04:13.227Z,18.84
2022-08-16T04:04:56.748Z,18.79
2022-08-16T04:05:30.481Z,18.78
2022-08-16T04:06:02.427Z,18.75
2022-08-16T04:06:34.045Z,18.71
2022-08-16T04:07:07.352Z,18.76
2022-08-16T04:07:39.369Z,18.72
2022-08-16T04:08:22.373Z,18.72
2022-08-16T04:08:55.893Z,18.65
2022-08-16T04:09:28.550Z,18.69
2022-08-16T04:10:00.110Z,18.75
2022-08-16T04:10:54.120Z,18.87
2022-08-16T04:11:26.573Z,18.88
2022-08-16T04:12:53.149Z,18.89
2022-08-16T04:13:04.483Z,19.01
2022-08-16T04:14:01.432Z,19.06
2022-08-16T04:14:33.068Z,19.05
2022-08-16T04:15:07.883Z,19.04
2022-08-16T04:15:39.698Z,19.11
2022-08-16T04:16:27.004Z,19.09
2022-08-16T04:17:01.769Z,19.12
2022-08-16T04:17:35.066Z,19.11
2022-08-16T04:18:07.261Z,19.15
2022-08-16T04:18:38.965Z,19.15
2022-08-16T04:19:10.549Z,19.22
2022-08-16T04:19:45.484Z,19.22
2022-08-16T04:20:31.414Z,19.27
2022-08-16T04:21:06.016Z,19.30
2022-08-16T04:21:45.930Z,19.27
2022-08-16T04:22:19.642Z,19.36
2022-08-16T04:22:51.419Z,19.36
2022-08-16T04:23:23.577Z,19.34
2022-08-16T04:23:57.038Z,19.26
2022-08-16T04:24:28.968Z,19.18
2022-08-16T04:25:00.870Z,19.11
2022-08-16T04:25:32.433Z,19.05
2022-08-16T04:26:04.991Z,18.99
2022-08-16T04:26:36.527Z,19.05
2022-08-16T04:27:08.983Z,19.12
2022-08-16T04:27:41.201Z,19.20
2022-08-16T04:28:52.465Z,19.26
2022-08-16T04:29:23.943Z,19.23
2022-08-16T04:30:02.794Z,19.25
2022-08-16T04:30:35.849Z,19.29
2022-08-16T04:31:10.705Z,19.30
2022-08-16T04:31:43.801Z,19.34
2022-08-16T04:32:15.519Z,19.32
2022-08-16T04:32:51.469Z,19.34
2022-08-16T04:33:27.670Z,19.34
2022-08-16T04:34:00.226Z,19.32
2022-08-16T04:34:35.699Z,19.32
2022-08-16T04:35:16.192Z,19.18
2022-08-16T04:35:49.590Z,19.22
2022-08-16T04:36:21.385Z,19.32
2022-08-16T04:36:54.183Z,19.39
2022-08-16T04:37:25.817Z,19.39
2022-08-16T04:37:57.472Z,19.40
2022-08-16T04:38:30.646Z,19.39
2022-08-16T04:39:02.316Z,19.40
2022-08-16T04:39:45.847Z,19.46
2022-08-16T04:40:21.803Z,19.52
2022-08-16T04:40:57.100Z,19.60
2022-08-16T04:41:32.292Z,19.64
2022-08-16T04:42:11.017Z,19.56
2022-08-16T04:42:43.482Z,19.66
2022-08-16T04:43:17.497Z,19.70
2022-08-16T04:43:51.268Z,19.71
2022-08-16T04:44:32.429Z,19.73
2022-08-16T04:45:17.911Z,19.77
2022-08-16T04:46:06.849Z,19.81
2022-08-16T04:47:03.195Z,19.87
2022-08-16T04:47:36.096Z,19.90
2022-08-16T04:48:08.199Z,19.97
2022-08-16T04:48:41.517Z,19.93
2022-08-16T04:49:15.156Z,19.95
2022-08-16T04:49:47.331Z,19.95
2022-08-16T04:50:22.854Z,20.02
2022-08-16T04:51:01.573Z,20.11
2022-08-16T04:51:43.572Z,20.17
2022-08-16T04:52:35.216Z,20.24
2022-08-16T04:53:07.846Z,20.31
2022-08-16T04:53:41.288Z,20.35
2022-08-16T04:54:13.157Z,20.38
2022-08-16T04:54:51.641Z,20.42
2022-08-16T04:55:37.705Z,20.36
2022-08-16T04:56:11.527Z,20.35
2022-08-16T04:56:46.284Z,20.42
2022-08-16T04:57:18.795Z,20.45
2022-08-16T04:57:54.260Z,20.43
2022-08-16T04:58:43.915Z,20.45
2022-08-16T04:59:18.236Z,20.52
2022-08-16T04:59:49.930Z,20.53
2022-08-16T05:00:34.234Z,20.60
2022-08-16T05:01:08.009Z,20.70
2022-08-16T05:01:58.338Z,20.72
2022-08-16T05:02:41.933Z,20.83
2022-08-16T05:03:14.541Z,20.89
2022-08-16T05:04:00.336Z,20.87
2022-08-16T05:04:33.565Z,20.87
2022-08-16T05:05:05.551Z,20.86
2022-08-16T05:05:55.330Z,20.97
2022-08-16T05:06:42.373Z,21.08
2022-08-16T05:07:20.455Z,21.15
2022-08-16T05:07:58.304Z,21.18
2022-08-16T05:08:32.751Z,21.21
2022-08-16T05:09:05.881Z,21.17
2022-08-16T05:09:38.404Z,21.18
2022-08-16T05:10:19.958Z,21.18
2022-08-16T05:11:00.079Z,21.20
2022-08-16T05:11:32.370Z,21.20
2022-08-16T05:12:04.376Z,21.21
2022-08-16T05:12:37.178Z,21.23
2022-08-16T05:13:08.925Z,21.27
2022-08-16T05:13:47.683Z,21.30
2022-08-16T05:14:20.041Z,21.35
2022-08-16T05:15:02.596Z,21.35
2022-08-16T05:15:35.729Z,21.38
2022-08-16T05:16:19.958Z,21.42
2022-08-16T05:16:52.316Z,21.45
2022-08-16T05:17:24.755Z,21.45
2022-08-16T05:17:59.036Z,21.44
2022-08-16T05:18:31.657Z,21.47
2022-08-16T05:19:04.862Z,21.49
2022-08-16T05:19:36.750Z,21.51
2022-08-16T05:20:38.643Z,21.51
2022-08-16T05:21:11.081Z,21.49
2022-08-16T05:21:44.081Z,21.51
2022-08-16T05:22:18.551Z,21.57
2022-08-16T05:22:50.556Z,21.58
2022-08-16T05:23:24.619Z,21.61
2022-08-16T05:24:06.922Z,21.68
2022-08-16T05:24:39.014Z,21.71
2022-08-16T05:25:12.339Z,21.68
2022-08-16T05:25:48.201Z,21.72
2022-08-16T05:26:20.860Z,21.71
2022-08-16T05:26:52.509Z,21.75
2022-08-16T05:27:24.457Z,21.75
2022-08-16T05:27:59.303Z,21.85
2022-08-16T05:28:37.557Z,21.90
2022-08-16T05:29:14.738Z,22.03
2022-08-16T05:30:00.764Z,22.10
2022-08-16T05:30:37.182Z,22.20
2022-08-16T05:31:09.975Z,22.24
2022-08-16T05:31:44.199Z,22.23
2022-08-16T05:32:31.853Z,22.29
2022-08-16T05:33:05.949Z,22.21
2022-08-16T05:33:42.126Z,22.23
2022-08-16T05:34:19.741Z,22.26
2022-08-16T05:34:51.801Z,22.32
2022-08-16T05:35:24.547Z,22.32
2022-08-16T05:35:57.086Z,22.36
2022-08-16T05:36:33.982Z,22.34
2022-08-16T05:37:08.205Z,22.34
2022-08-16T05:37:41.208Z,22.37
2022-08-16T05:38:33.062Z,22.40
2022-08-16T05:39:06.716Z,22.43
2022-08-16T05:39:40.916Z,22.50
2022-08-16T05:40:14.085Z,22.57
2022-08-16T05:40:57.262Z,22.57
2022-08-16T05:41:31.742Z,22.63
2022-08-16T05:42:04.516Z,22.60
2022-08-16T05:42:37.082Z,22.65
2022-08-16T05:43:12.177Z,22.67
2022-08-16T05:43:46.779Z,22.75
2022-08-16T05:44:23.414Z,22.79
2022-08-16T05:44:56.551Z,22.87
2022-08-16T05:45:29.417Z,22.94
2022-08-16T05:46:01.047Z,22.99
2022-08-16T05:46:33.240Z,22.92
2022-08-16T05:47:04.912Z,23.01
2022-08-16T05:47:43.270Z,23.08
2022-08-16T05:48:15.132Z,23.09
2022-08-16T05:48:55.066Z,23.25
2022-08-16T05:49:38.425Z,23.20
2022-08-16T05:50:19.208Z,23.26
2022-08-16T05:50:53.203Z,23.32
2022-08-16T05:51:38.160Z,23.16
2022-08-16T05:52:13.667Z,22.98
2022-08-16T05:52:45.481Z,22.87
2022-08-16T05:53:17.622Z,22.96
2022-08-16T05:53:49.989Z,22.98
2022-08-16T05:54:25.893Z,22.91
2022-08-16T05:55:01.006Z,22.78
2022-08-16T05:55:35.092Z,22.83
2022-08-16T05:56:12.901Z,22.95
2022-08-16T05:56:51.134Z,23.05
2022-08-16T05:57:23.136Z,23.16
2022-08-16T05:57:54.930Z,22.94
2022-08-16T05:58:33.192Z,22.95
2022-08-16T05:59:06.273Z,22.90
2022-08-16T05:59:38.356Z,22.88
2022-08-16T06:00:11.670Z,22.83
2022-08-16T06:00:43.220Z,22.83
2022-08-16T06:01:14.812Z,22.90
2022-08-16T06:01:50.376Z,22.81
2022-08-16T06:02:24.598Z,22.85
2022-08-16T06:03:00.717Z,22.81
2022-08-16T06:03:34.261Z,22.71
2022-08-16T06:04:13.118Z,22.68
2022-08-16T06:04:59.867Z,22.64
2022-08-16T06:05:36.048Z,22.67
2022-08-16T06:06:08.660Z,22.67
2022-08-16T06:06:43.509Z,22.69
2022-08-16T06:07:28.208Z,22.77
2022-08-16T06:08:04.003Z,22.78
2022-08-16T06:08:42.123Z,22.83
2022-08-16T06:09:18.172Z,22.90
2022-08-16T06:09:49.780Z,22.98
2022-08-16T06:10:32.471Z,22.96
2022-08-16T06:11:11.151Z,23.02
2022-08-16T06:11:45.950Z,22.98
2022-08-16T06:12:26.859Z,22.96
2022-08-16T06:13:00.193Z,23.11
2022-08-16T06:13:32.648Z,23.11
2022-08-16T06:14:05.606Z,23.11
2022-08-16T06:14:37.160Z,23.06
2022-08-16T06:15:16.561Z,23.11
2022-08-16T06:15:51.981Z,23.15
2022-08-16T06:16:23.574Z,23.11
2022-08-16T06:16:59.064Z,22.99
2022-08-16T06:17:42.305Z,23.01
2022-08-16T06:18:15.813Z,23.11
2022-08-16T06:18:49.092Z,23.12
2022-08-16T06:19:22.221Z,23.12
2022-08-16T06:19:55.898Z,23.14
2022-08-16T06:20:35.881Z,23.14
2022-08-16T06:21:08.348Z,23.08
2022-08-16T06:21:41.383Z,23.06
2022-08-16T06:22:19.509Z,23.04
2022-08-16T06:23:16.912Z,22.99
2022-08-16T06:23:49.537Z,23.01
2022-08-16T06:24:54.602Z,23.05
2022-08-16T06:25:17.905Z,23.02
2022-08-16T06:26:08.128Z,23.05
2022-08-16T06:26:45.954Z,23.14
2022-08-16T06:27:39.532Z,23.14
2022-08-16T06:28:16.971Z,23.15
2022-08-16T06:29:04.585Z,23.05
2022-08-16T06:29:39.519Z,23.09
2022-08-16T06:30:13.389Z,23.08
2022-08-16T06:30:51.492Z,22.99
2022-08-16T06:31:25.179Z,23.01
2022-08-16T06:31:56.833Z,22.88
2022-08-16T06:32:29.576Z,22.91
2022-08-16T06:33:04.085Z,22.84
2022-08-16T06:33:40.273Z,22.84
2022-08-16T06:34:56.128Z,22.90
2022-08-16T06:35:07.040Z,22.95
2022-08-16T06:35:41.531Z,22.99
2022-08-16T06:36:14.091Z,23.01
2022-08-16T06:36:46.094Z,23.08
2022-08-16T06:37:20.195Z,23.01
2022-08-16T06:37:52.510Z,23.05
2022-08-16T06:38:34.090Z,23.05
2022-08-16T06:39:06.324Z,23.02
2022-08-16T06:39:49.552Z,23.11
2022-08-16T06:40:21.930Z,23.14
2022-08-16T06:41:12.350Z,23.11
2022-08-16T06:41:45.797Z,23.11
2022-08-16T06:42:18.297Z,23.06
2022-08-16T06:42:57.372Z,23.12
2022-08-16T06:43:29.366Z,23.09
2022-08-16T06:44:01.464Z,23.06
2022-08-16T06:44:33.055Z,23.15
2022-08-16T06:45:06.204Z,23.18
2022-08-16T06:45:38.122Z,23.23
2022-08-16T06:46:37.527Z,23.19
2022-08-16T06:47:10.284Z,23.19
2022-08-16T06:47:53.544Z,23.18
2022-08-16T06:48:32.863Z,23.18
2022-08-16T06:49:08.232Z,23.18
2022-08-16T06:49:43.130Z,23.20
2022-08-16T06:50:29.559Z,23.32
2022-08-16T06:51:06.247Z,23.42
2022-08-16T06:51:45.744Z,23.38
2022-08-16T06:52:57.826Z,23.29
2022-08-16T06:53:11.663Z,23.33
2022-08-16T06:53:46.914Z,23.32
2022-08-16T06:54:24.275Z,23.32
2022-08-16T06:54:57.293Z,23.22
2022-08-16T06:55:34.100Z,23.18
2022-08-16T06:56:13.834Z,23.15
2022-08-16T06:56:53.988Z,23.18
2022-08-16T06:57:27.040Z,23.23
2022-08-16T06:57:58.646Z,23.22
2022-08-16T06:58:33.112Z,23.16
2022-08-16T06:59:05.166Z,23.20
2022-08-16T06:59:52.908Z,23.16
2022-08-16T07:00:30.195Z,23.20
2022-08-16T07:01:02.577Z,23.11
2022-08-16T07:01:45.142Z,23.22
2022-08-16T07:02:32.416Z,23.19
2022-08-16T07:03:27.466Z,23.20
2022-08-16T07:03:58.371Z,23.20
2022-08-16T07:04:32.639Z,23.19
2022-08-16T07:05:15.334Z,23.23
2022-08-16T07:05:48.654Z,23.22
2022-08-16T07:06:22.283Z,23.25
2022-08-16T07:06:58.836Z,23.38
2022-08-16T07:07:34.663Z,23.45
2022-08-16T07:08:11.644Z,23.50
2022-08-16T07:08:43.899Z,23.50
2022-08-16T07:09:15.870Z,23.53
2022-08-16T07:09:47.937Z,23.57
2022-08-16T07:10:25.615Z,23.53
2022-08-16T07:10:58.794Z,23.57
2022-08-16T07:11:47.477Z,23.53
2022-08-16T07:12:19.942Z,23.67
2022-08-16T07:13:03.970Z,23.60
2022-08-16T07:14:03.746Z,23.60
2022-08-16T07:14:33.356Z,23.75
2022-08-16T07:15:08.438Z,23.69
2022-08-16T07:15:51.014Z,23.75
2022-08-16T07:16:27.740Z,23.78
2022-08-16T07:17:00.425Z,23.64
2022-08-16T07:17:32.844Z,23.71
2022-08-16T07:18:05.572Z,23.59
2022-08-16T07:18:37.539Z,23.63
2022-08-16T07:20:02.582Z,23.70
2022-08-16T07:20:35.614Z,23.73
2022-08-16T07:21:19.176Z,23.77
2022-08-16T07:21:59.585Z,23.81
2022-08-16T07:22:39.012Z,23.85
2022-08-16T07:23:13.298Z,23.91
2022-08-16T07:23:46.333Z,23.83
2022-08-16T07:24:29.498Z,23.81
2022-08-16T07:25:03.498Z,23.80
2022-08-16T07:25:35.113Z,23.77
2022-08-16T07:26:25.329Z,23.78
2022-08-16T07:26:57.698Z,23.75
2022-08-16T07:27:32.098Z,23.66
2022-08-16T07:28:05.793Z,23.57
2022-08-16T07:28:43.444Z,23.56
2022-08-16T07:29:16.827Z,23.59
2022-08-16T07:29:48.490Z,23.45
2022-08-16T07:30:45.521Z,23.38
2022-08-16T07:31:13.015Z,23.50
2022-08-16T07:31:45.937Z,23.63
2022-08-16T07:32:29.096Z,23.64
2022-08-16T07:33:02.274Z,23.53
2022-08-16T07:33:53.308Z,23.66
2022-08-16T07:34:35.811Z,23.77
2022-08-16T07:35:18.551Z,23.62
2022-08-16T07:35:50.105Z,23.70
2022-08-16T07:36:22.750Z,23.71
2022-08-16T07:36:58.285Z,23.80
2022-08-16T07:37:30.432Z,23.87
2022-08-16T07:38:02.918Z,23.74
2022-08-16T07:38:35.856Z,23.85
2022-08-16T07:39:08.693Z,23.83
2022-08-16T07:39:43.419Z,23.90
2022-08-16T07:40:16.081Z,23.84
2022-08-16T07:41:10.117Z,23.85
2022-08-16T07:41:40.583Z,23.97
2022-08-16T07:42:20.126Z,24.00
2022-08-16T07:42:57.728Z,24.01
2022-08-16T07:43:29.630Z,24.08
2022-08-16T07:44:01.693Z,24.14
2022-08-16T07:44:49.143Z,24.22
2022-08-16T07:45:22.355Z,24.32
2022-08-16T07:45:54.519Z,24.28
2022-08-16T07:46:39.192Z,24.38
2022-08-16T07:47:11.754Z,24.45
2022-08-16T07:47:44.222Z,24.52
2022-08-16T07:48:18.005Z,24.56
2022-08-16T07:48:51.023Z,24.58
2022-08-16T07:49:27.058Z,24.58
2022-08-16T07:50:05.054Z,24.49
2022-08-16T07:50:56.075Z,24.63
2022-08-16T07:51:31.786Z,24.68
2022-08-16T07:52:19.112Z,24.80
2022-08-16T07:52:51.987Z,24.80
2022-08-16T07:53:24.319Z,24.83
2022-08-16T07:54:09.318Z,24.94
2022-08-16T07:54:45.619Z,25.06
2022-08-16T07:55:18.687Z,25.03
2022-08-16T07:55:51.198Z,25.19
2022-08-16T07:56:23.679Z,25.30
2022-08-16T07:57:06.090Z,25.49
2022-08-16T07:57:55.882Z,25.62
2022-08-16T07:58:34.858Z,25.69
2022-08-16T07:59:07.130Z,25.74
2022-08-16T07:59:45.580Z,25.48
2022-08-16T08:00:18.724Z,25.59
2022-08-16T08:00:50.540Z,25.57
2022-08-16T08:01:24.815Z,25.62
2022-08-16T08:01:59.726Z,25.74
2022-08-16T08:02:31.324Z,25.64
2022-08-16T08:03:03.470Z,25.84
2022-08-16T08:03:39.453Z,26.13